sensor_id;sensor_type;location;lat;lon;timestamp;noise_LAeq;noise_LA_min;noise_LA_max;noise_LA01;noise_LA95
73342;Laerm;61578;52.002;5.468;2023-06-14T00:00:20;41.14;37.77;45.90;;
73342;Laerm;61578;52.002;5.468;2023-06-14T00:00:51;40.93;37.78;45.07;;
73342;Laerm;61578;52.002;5.468;2023-06-14T00:01:23;40.80;37.59;44.76;;
73342;Laerm;61578;52.002;5.468;2023-06-14T00:01:53;40.82;37.27;44.62;;
73342;Laerm;61578;52.002;5.468;2023-06-14T00:02:25;41.08;37.58;45.80;;
73342;Laerm;61578;52.002;5.468;2023-06-14T00:02:56;40.89;37.57;44.48;;
73342;Laerm;61578;52.002;5.468;2023-06-14T00:03:29;41.07;37.51;44.47;;
73342;Laerm;61578;52.002;5.468;2023-06-14T00:04:02;40.76;37.61;44.42;;
73342;Laerm;61578;52.002;5.468;2023-06-14T00:04:35;40.92;37.37;45.38;;
73342;Laerm;61578;52.002;5.468;2023-06-14T00:05:08;40.84;37.67;46.44;;
73342;Laerm;61578;52.002;5.468;2023-06-14T00:05:38;40.69;37.86;43.98;;
73342;Laerm;61578;52.002;5.468;2023-06-14T00:06:13;40.80;37.49;44.89;;
73342;Laerm;61578;52.002;5.468;2023-06-14T00:06:44;41.21;38.08;45.51;;
73342;Laerm;61578;52.002;5.468;2023-06-14T00:07:35;40.82;37.89;45.31;;
73342;Laerm;61578;52.002;5.468;2023-06-14T00:08:07;40.93;37.92;46.59;;
73342;Laerm;61578;52.002;5.468;2023-06-14T00:08:38;41.04;37.95;45.07;;
73342;Laerm;61578;52.002;5.468;2023-06-14T00:09:13;40.93;37.77;45.26;;
73342;Laerm;61578;52.002;5.468;2023-06-14T00:09:43;41.10;37.88;44.56;;
73342;Laerm;61578;52.002;5.468;2023-06-14T00:10:14;40.96;37.94;44.90;;
73342;Laerm;61578;52.002;5.468;2023-06-14T00:10:45;41.06;38.15;45.32;;
73342;Laerm;61578;52.002;5.468;2023-06-14T00:11:16;40.72;37.83;44.18;;
73342;Laerm;61578;52.002;5.468;2023-06-14T00:11:46;40.96;37.88;45.19;;
73342;Laerm;61578;52.002;5.468;2023-06-14T00:12:17;41.40;38.10;45.67;;
73342;Laerm;61578;52.002;5.468;2023-06-14T00:12:48;41.26;38.38;45.06;;
73342;Laerm;61578;52.002;5.468;2023-06-14T00:13:19;41.36;38.45;44.60;;
73342;Laerm;61578;52.002;5.468;2023-06-14T00:13:49;40.76;37.65;44.31;;
73342;Laerm;61578;52.002;5.468;2023-06-14T00:14:20;41.09;37.70;45.70;;
73342;Laerm;61578;52.002;5.468;2023-06-14T00:14:51;40.88;37.86;45.45;;
73342;Laerm;61578;52.002;5.468;2023-06-14T00:15:22;40.92;38.08;44.75;;
73342;Laerm;61578;52.002;5.468;2023-06-14T00:15:54;41.30;37.95;44.67;;
73342;Laerm;61578;52.002;5.468;2023-06-14T00:16:25;41.23;37.08;44.55;;
73342;Laerm;61578;52.002;5.468;2023-06-14T00:16:55;40.74;37.83;44.44;;
73342;Laerm;61578;52.002;5.468;2023-06-14T00:17:29;41.07;37.55;44.62;;
73342;Laerm;61578;52.002;5.468;2023-06-14T00:18:01;40.97;37.74;45.10;;
73342;Laerm;61578;52.002;5.468;2023-06-14T00:18:32;41.10;37.84;44.88;;
73342;Laerm;61578;52.002;5.468;2023-06-14T00:19:03;40.88;38.01;45.26;;
73342;Laerm;61578;52.002;5.468;2023-06-14T00:19:34;40.88;37.05;44.75;;
73342;Laerm;61578;52.002;5.468;2023-06-14T00:20:07;41.11;37.85;46.33;;
73342;Laerm;61578;52.002;5.468;2023-06-14T00:20:38;41.10;38.22;45.19;;
73342;Laerm;61578;52.002;5.468;2023-06-14T00:21:09;40.97;37.58;45.00;;
73342;Laerm;61578;52.002;5.468;2023-06-14T00:21:40;41.84;38.21;47.30;;
73342;Laerm;61578;52.002;5.468;2023-06-14T00:22:12;42.05;38.27;49.90;;
73342;Laerm;61578;52.002;5.468;2023-06-14T00:22:42;41.17;38.38;44.63;;
73342;Laerm;61578;52.002;5.468;2023-06-14T00:23:13;40.82;37.63;44.89;;
73342;Laerm;61578;52.002;5.468;2023-06-14T00:23:44;41.32;38.70;45.70;;
73342;Laerm;61578;52.002;5.468;2023-06-14T00:24:23;40.97;37.82;45.44;;
73342;Laerm;61578;52.002;5.468;2023-06-14T00:24:54;40.89;37.59;45.07;;
73342;Laerm;61578;52.002;5.468;2023-06-14T00:25:25;40.90;37.79;44.72;;
73342;Laerm;61578;52.002;5.468;2023-06-14T00:25:55;41.25;38.03;44.68;;
73342;Laerm;61578;52.002;5.468;2023-06-14T00:26:26;41.24;38.07;44.96;;
73342;Laerm;61578;52.002;5.468;2023-06-14T00:26:57;40.92;37.67;44.16;;
73342;Laerm;61578;52.002;5.468;2023-06-14T00:27:28;40.97;38.12;45.57;;
73342;Laerm;61578;52.002;5.468;2023-06-14T00:27:59;40.77;37.71;44.98;;
73342;Laerm;61578;52.002;5.468;2023-06-14T00:28:29;41.11;37.94;45.00;;
73342;Laerm;61578;52.002;5.468;2023-06-14T00:29:00;40.87;37.74;44.93;;
73342;Laerm;61578;52.002;5.468;2023-06-14T00:29:31;40.84;37.62;45.04;;
73342;Laerm;61578;52.002;5.468;2023-06-14T00:30:01;41.02;38.33;44.38;;
73342;Laerm;61578;52.002;5.468;2023-06-14T00:30:32;41.11;37.92;45.13;;
73342;Laerm;61578;52.002;5.468;2023-06-14T00:31:03;41.05;38.18;44.94;;
73342;Laerm;61578;52.002;5.468;2023-06-14T00:31:34;40.91;37.75;44.83;;
73342;Laerm;61578;52.002;5.468;2023-06-14T00:32:05;40.91;38.05;44.45;;
73342;Laerm;61578;52.002;5.468;2023-06-14T00:32:35;41.23;38.34;45.08;;
73342;Laerm;61578;52.002;5.468;2023-06-14T00:33:06;40.97;38.14;44.78;;
73342;Laerm;61578;52.002;5.468;2023-06-14T00:33:37;41.23;38.30;45.01;;
73342;Laerm;61578;52.002;5.468;2023-06-14T00:34:07;41.00;37.75;45.47;;
73342;Laerm;61578;52.002;5.468;2023-06-14T00:34:39;40.98;38.16;44.91;;
73342;Laerm;61578;52.002;5.468;2023-06-14T00:35:11;40.83;37.48;45.37;;
73342;Laerm;61578;52.002;5.468;2023-06-14T00:35:42;41.12;38.10;44.84;;
73342;Laerm;61578;52.002;5.468;2023-06-14T00:36:13;41.02;37.97;44.35;;
73342;Laerm;61578;52.002;5.468;2023-06-14T00:36:44;40.97;37.68;45.21;;
73342;Laerm;61578;52.002;5.468;2023-06-14T00:37:14;41.04;38.27;45.20;;
73342;Laerm;61578;52.002;5.468;2023-06-14T00:37:45;41.01;38.34;45.33;;
73342;Laerm;61578;52.002;5.468;2023-06-14T00:38:16;41.00;37.25;44.87;;
73342;Laerm;61578;52.002;5.468;2023-06-14T00:38:46;40.90;38.00;45.07;;
73342;Laerm;61578;52.002;5.468;2023-06-14T00:39:23;40.82;37.49;45.17;;
73342;Laerm;61578;52.002;5.468;2023-06-14T00:39:54;41.13;37.87;45.19;;
73342;Laerm;61578;52.002;5.468;2023-06-14T00:40:24;41.21;38.47;46.00;;
73342;Laerm;61578;52.002;5.468;2023-06-14T00:40:55;40.79;37.99;44.26;;
73342;Laerm;61578;52.002;5.468;2023-06-14T00:41:26;40.93;38.37;45.32;;
73342;Laerm;61578;52.002;5.468;2023-06-14T00:41:57;40.82;37.59;44.65;;
73342;Laerm;61578;52.002;5.468;2023-06-14T00:42:30;41.24;38.39;45.17;;
73342;Laerm;61578;52.002;5.468;2023-06-14T00:43:01;41.35;37.63;45.26;;
73342;Laerm;61578;52.002;5.468;2023-06-14T00:43:31;41.20;37.89;45.87;;
73342;Laerm;61578;52.002;5.468;2023-06-14T00:44:02;41.07;37.34;45.25;;
73342;Laerm;61578;52.002;5.468;2023-06-14T00:44:33;41.10;37.97;44.92;;
73342;Laerm;61578;52.002;5.468;2023-06-14T00:45:04;41.10;37.82;45.06;;
73342;Laerm;61578;52.002;5.468;2023-06-14T00:45:35;41.10;37.76;45.15;;
73342;Laerm;61578;52.002;5.468;2023-06-14T00:46:06;41.23;38.47;45.52;;
73342;Laerm;61578;52.002;5.468;2023-06-14T00:46:37;40.91;37.54;44.87;;
73342;Laerm;61578;52.002;5.468;2023-06-14T00:47:07;40.88;37.60;44.64;;
73342;Laerm;61578;52.002;5.468;2023-06-14T00:47:41;40.92;37.55;45.02;;
73342;Laerm;61578;52.002;5.468;2023-06-14T00:48:14;41.04;37.66;44.87;;
73342;Laerm;61578;52.002;5.468;2023-06-14T00:48:45;41.23;38.10;44.52;;
73342;Laerm;61578;52.002;5.468;2023-06-14T00:49:18;40.95;38.33;45.25;;
73342;Laerm;61578;52.002;5.468;2023-06-14T00:49:50;40.96;37.60;45.05;;
73342;Laerm;61578;52.002;5.468;2023-06-14T00:50:24;41.02;38.04;45.59;;
73342;Laerm;61578;52.002;5.468;2023-06-14T00:50:55;40.98;38.03;44.58;;
73342;Laerm;61578;52.002;5.468;2023-06-14T00:51:27;41.10;38.02;45.20;;
73342;Laerm;61578;52.002;5.468;2023-06-14T00:51:58;40.88;37.62;45.33;;
73342;Laerm;61578;52.002;5.468;2023-06-14T00:52:29;40.71;37.31;45.73;;
73342;Laerm;61578;52.002;5.468;2023-06-14T00:53:01;40.83;37.67;45.92;;
73342;Laerm;61578;52.002;5.468;2023-06-14T00:53:32;40.89;37.88;44.48;;
73342;Laerm;61578;52.002;5.468;2023-06-14T00:54:06;41.01;38.34;45.26;;
73342;Laerm;61578;52.002;5.468;2023-06-14T00:54:36;41.06;38.05;44.75;;
73342;Laerm;61578;52.002;5.468;2023-06-14T00:55:07;40.93;37.73;46.43;;
73342;Laerm;61578;52.002;5.468;2023-06-14T00:55:38;41.02;37.69;45.04;;
73342;Laerm;61578;52.002;5.468;2023-06-14T00:56:09;41.19;38.07;45.21;;
73342;Laerm;61578;52.002;5.468;2023-06-14T00:56:41;41.10;38.21;45.37;;
73342;Laerm;61578;52.002;5.468;2023-06-14T00:57:14;40.88;37.61;45.60;;
73342;Laerm;61578;52.002;5.468;2023-06-14T00:57:45;40.78;36.91;45.69;;
73342;Laerm;61578;52.002;5.468;2023-06-14T00:58:16;41.00;37.75;45.05;;
73342;Laerm;61578;52.002;5.468;2023-06-14T00:58:48;40.99;37.97;46.12;;
73342;Laerm;61578;52.002;5.468;2023-06-14T00:59:20;40.82;38.28;44.70;;
73342;Laerm;61578;52.002;5.468;2023-06-14T00:59:50;40.88;38.29;44.47;;
73342;Laerm;61578;52.002;5.468;2023-06-14T01:00:22;40.84;37.75;45.75;;
73342;Laerm;61578;52.002;5.468;2023-06-14T01:00:53;40.90;37.41;44.44;;
73342;Laerm;61578;52.002;5.468;2023-06-14T01:01:24;40.92;37.90;45.18;;
73342;Laerm;61578;52.002;5.468;2023-06-14T01:01:55;41.13;38.24;44.84;;
73342;Laerm;61578;52.002;5.468;2023-06-14T01:02:26;40.76;38.22;45.16;;
73342;Laerm;61578;52.002;5.468;2023-06-14T01:02:56;40.86;37.76;44.46;;
73342;Laerm;61578;52.002;5.468;2023-06-14T01:03:27;40.91;37.99;45.30;;
73342;Laerm;61578;52.002;5.468;2023-06-14T01:03:59;40.79;37.59;44.87;;
73342;Laerm;61578;52.002;5.468;2023-06-14T01:04:31;40.82;37.65;45.09;;
73342;Laerm;61578;52.002;5.468;2023-06-14T01:05:03;40.93;37.98;44.24;;
73342;Laerm;61578;52.002;5.468;2023-06-14T01:05:34;40.85;37.68;45.21;;
73342;Laerm;61578;52.002;5.468;2023-06-14T01:06:45;40.92;37.38;45.89;;
73342;Laerm;61578;52.002;5.468;2023-06-14T01:08:32;40.74;37.48;45.11;;
73342;Laerm;61578;52.002;5.468;2023-06-14T01:10:58;40.82;37.88;45.63;;
73342;Laerm;61578;52.002;5.468;2023-06-14T01:11:50;41.21;38.25;45.28;;
73342;Laerm;61578;52.002;5.468;2023-06-14T01:13:34;40.79;37.41;45.29;;
73342;Laerm;61578;52.002;5.468;2023-06-14T01:14:08;40.85;37.85;44.77;;
73342;Laerm;61578;52.002;5.468;2023-06-14T01:14:42;40.92;38.15;44.94;;
73342;Laerm;61578;52.002;5.468;2023-06-14T01:15:13;40.89;37.85;44.99;;
73342;Laerm;61578;52.002;5.468;2023-06-14T01:15:47;40.91;37.55;45.53;;
73342;Laerm;61578;52.002;5.468;2023-06-14T01:16:19;40.83;37.48;45.60;;
73342;Laerm;61578;52.002;5.468;2023-06-14T01:16:51;40.79;38.09;44.86;;
73342;Laerm;61578;52.002;5.468;2023-06-14T01:17:24;40.97;37.45;45.94;;
73342;Laerm;61578;52.002;5.468;2023-06-14T01:17:57;40.96;37.80;44.86;;
73342;Laerm;61578;52.002;5.468;2023-06-14T01:18:34;40.85;37.87;45.70;;
73342;Laerm;61578;52.002;5.468;2023-06-14T01:19:10;40.91;37.93;45.62;;
73342;Laerm;61578;52.002;5.468;2023-06-14T01:19:45;40.72;37.60;45.35;;
73342;Laerm;61578;52.002;5.468;2023-06-14T01:20:17;40.93;37.98;44.98;;
73342;Laerm;61578;52.002;5.468;2023-06-14T01:20:48;40.69;37.27;44.96;;
73342;Laerm;61578;52.002;5.468;2023-06-14T01:21:24;40.75;37.90;44.61;;
73342;Laerm;61578;52.002;5.468;2023-06-14T01:21:56;40.68;37.59;45.33;;
73342;Laerm;61578;52.002;5.468;2023-06-14T01:22:28;40.67;37.85;45.43;;
73342;Laerm;61578;52.002;5.468;2023-06-14T01:23:00;40.97;37.58;47.81;;
73342;Laerm;61578;52.002;5.468;2023-06-14T01:23:32;40.82;38.03;45.68;;
73342;Laerm;61578;52.002;5.468;2023-06-14T01:24:03;40.64;37.50;44.97;;
73342;Laerm;61578;52.002;5.468;2023-06-14T01:24:37;40.88;37.65;44.97;;
73342;Laerm;61578;52.002;5.468;2023-06-14T01:25:09;40.82;37.87;45.44;;
73342;Laerm;61578;52.002;5.468;2023-06-14T01:25:42;40.60;37.66;43.96;;
73342;Laerm;61578;52.002;5.468;2023-06-14T01:26:15;41.26;37.88;45.76;;
73342;Laerm;61578;52.002;5.468;2023-06-14T01:26:48;40.81;37.99;46.15;;
73342;Laerm;61578;52.002;5.468;2023-06-14T01:27:26;40.77;37.70;45.61;;
73342;Laerm;61578;52.002;5.468;2023-06-14T01:28:05;40.83;37.71;44.59;;
73342;Laerm;61578;52.002;5.468;2023-06-14T01:28:41;40.77;37.53;44.98;;
73342;Laerm;61578;52.002;5.468;2023-06-14T01:29:15;40.85;37.38;45.11;;
73342;Laerm;61578;52.002;5.468;2023-06-14T01:29:55;41.12;38.10;45.95;;
73342;Laerm;61578;52.002;5.468;2023-06-14T01:30:28;41.05;37.98;45.36;;
73342;Laerm;61578;52.002;5.468;2023-06-14T01:31:03;40.97;37.19;46.57;;
73342;Laerm;61578;52.002;5.468;2023-06-14T01:31:35;40.88;37.59;44.98;;
73342;Laerm;61578;52.002;5.468;2023-06-14T01:32:12;40.65;37.73;44.67;;
73342;Laerm;61578;52.002;5.468;2023-06-14T01:32:46;40.74;37.90;45.99;;
73342;Laerm;61578;52.002;5.468;2023-06-14T01:33:27;40.88;37.54;45.10;;
73342;Laerm;61578;52.002;5.468;2023-06-14T01:33:58;40.78;37.46;44.71;;
73342;Laerm;61578;52.002;5.468;2023-06-14T01:34:29;41.10;38.04;45.29;;
73342;Laerm;61578;52.002;5.468;2023-06-14T01:35:00;40.95;37.95;45.04;;
73342;Laerm;61578;52.002;5.468;2023-06-14T01:35:31;40.79;37.69;45.06;;
73342;Laerm;61578;52.002;5.468;2023-06-14T01:36:06;40.70;37.88;46.35;;
73342;Laerm;61578;52.002;5.468;2023-06-14T01:36:43;40.64;37.60;45.16;;
73342;Laerm;61578;52.002;5.468;2023-06-14T01:37:16;40.89;37.87;44.88;;
73342;Laerm;61578;52.002;5.468;2023-06-14T01:37:49;41.07;37.66;56.61;;
73342;Laerm;61578;52.002;5.468;2023-06-14T01:38:26;40.85;37.69;45.98;;
73342;Laerm;61578;52.002;5.468;2023-06-14T01:38:59;40.88;37.67;45.48;;
73342;Laerm;61578;52.002;5.468;2023-06-14T01:39:32;41.00;37.67;45.03;;
73342;Laerm;61578;52.002;5.468;2023-06-14T01:40:06;41.02;38.11;44.44;;
73342;Laerm;61578;52.002;5.468;2023-06-14T01:40:39;40.95;37.82;44.67;;
73342;Laerm;61578;52.002;5.468;2023-06-14T01:41:12;40.66;37.71;44.55;;
73342;Laerm;61578;52.002;5.468;2023-06-14T01:41:46;40.74;37.63;46.57;;
73342;Laerm;61578;52.002;5.468;2023-06-14T01:42:19;40.99;37.57;45.52;;
73342;Laerm;61578;52.002;5.468;2023-06-14T01:42:52;41.23;37.95;45.21;;
73342;Laerm;61578;52.002;5.468;2023-06-14T01:43:25;40.70;37.42;44.84;;
73342;Laerm;61578;52.002;5.468;2023-06-14T01:43:58;40.91;37.91;45.87;;
73342;Laerm;61578;52.002;5.468;2023-06-14T01:44:31;40.71;36.99;44.83;;
73342;Laerm;61578;52.002;5.468;2023-06-14T01:45:05;40.60;36.97;45.39;;
73342;Laerm;61578;52.002;5.468;2023-06-14T01:45:43;40.92;37.90;45.67;;
73342;Laerm;61578;52.002;5.468;2023-06-14T01:46:15;40.76;37.66;45.41;;
73342;Laerm;61578;52.002;5.468;2023-06-14T01:46:48;40.86;37.56;44.65;;
73342;Laerm;61578;52.002;5.468;2023-06-14T01:47:22;41.18;37.85;45.28;;
73342;Laerm;61578;52.002;5.468;2023-06-14T01:47:53;40.88;37.70;45.37;;
73342;Laerm;61578;52.002;5.468;2023-06-14T01:48:24;40.75;37.86;44.26;;
73342;Laerm;61578;52.002;5.468;2023-06-14T01:48:54;40.62;37.77;44.77;;
73342;Laerm;61578;52.002;5.468;2023-06-14T01:49:26;40.96;37.48;44.99;;
73342;Laerm;61578;52.002;5.468;2023-06-14T01:49:57;40.77;37.61;45.79;;
73342;Laerm;61578;52.002;5.468;2023-06-14T01:50:31;40.73;37.51;44.05;;
73342;Laerm;61578;52.002;5.468;2023-06-14T01:51:02;40.77;37.87;44.89;;
73342;Laerm;61578;52.002;5.468;2023-06-14T01:51:33;41.05;38.00;46.02;;
73342;Laerm;61578;52.002;5.468;2023-06-14T01:52:03;40.74;37.47;45.56;;
73342;Laerm;61578;52.002;5.468;2023-06-14T01:52:34;40.95;37.79;45.33;;
73342;Laerm;61578;52.002;5.468;2023-06-14T01:53:10;40.89;37.59;45.09;;
73342;Laerm;61578;52.002;5.468;2023-06-14T01:53:41;40.74;36.88;44.69;;
73342;Laerm;61578;52.002;5.468;2023-06-14T01:54:12;41.01;37.73;44.93;;
73342;Laerm;61578;52.002;5.468;2023-06-14T01:54:42;40.77;37.50;44.57;;
73342;Laerm;61578;52.002;5.468;2023-06-14T01:55:13;40.69;37.97;45.31;;
73342;Laerm;61578;52.002;5.468;2023-06-14T01:55:44;40.60;37.06;44.56;;
73342;Laerm;61578;52.002;5.468;2023-06-14T01:56:18;40.74;36.99;44.99;;
73342;Laerm;61578;52.002;5.468;2023-06-14T01:56:50;40.89;37.45;45.02;;
73342;Laerm;61578;52.002;5.468;2023-06-14T01:57:23;40.77;37.65;44.44;;
73342;Laerm;61578;52.002;5.468;2023-06-14T01:57:54;40.75;37.72;44.75;;
73342;Laerm;61578;52.002;5.468;2023-06-14T01:58:25;40.63;37.77;44.85;;
73342;Laerm;61578;52.002;5.468;2023-06-14T01:58:56;40.79;37.76;44.65;;
73342;Laerm;61578;52.002;5.468;2023-06-14T01:59:27;40.83;37.30;45.65;;
73342;Laerm;61578;52.002;5.468;2023-06-14T01:59:58;40.69;37.71;45.63;;
73342;Laerm;61578;52.002;5.468;2023-06-14T02:00:29;40.86;37.67;44.94;;
73342;Laerm;61578;52.002;5.468;2023-06-14T02:00:59;40.81;37.40;45.40;;
73342;Laerm;61578;52.002;5.468;2023-06-14T02:01:31;40.63;37.47;46.38;;
73342;Laerm;61578;52.002;5.468;2023-06-14T02:02:04;40.71;37.71;45.86;;
73342;Laerm;61578;52.002;5.468;2023-06-14T02:02:35;40.70;37.92;44.47;;
73342;Laerm;61578;52.002;5.468;2023-06-14T02:03:06;40.85;37.68;45.07;;
73342;Laerm;61578;52.002;5.468;2023-06-14T02:03:36;40.55;37.46;44.79;;
73342;Laerm;61578;52.002;5.468;2023-06-14T02:04:08;40.58;37.51;45.21;;
73342;Laerm;61578;52.002;5.468;2023-06-14T02:04:47;40.75;37.49;45.66;;
73342;Laerm;61578;52.002;5.468;2023-06-14T02:05:18;40.71;37.37;44.08;;
73342;Laerm;61578;52.002;5.468;2023-06-14T02:05:49;40.58;36.93;45.45;;
73342;Laerm;61578;52.002;5.468;2023-06-14T02:06:20;40.90;37.63;45.72;;
73342;Laerm;61578;52.002;5.468;2023-06-14T02:06:50;40.75;37.48;44.53;;
73342;Laerm;61578;52.002;5.468;2023-06-14T02:07:21;40.96;38.01;45.37;;
73342;Laerm;61578;52.002;5.468;2023-06-14T02:07:52;40.71;37.56;45.43;;
73342;Laerm;61578;52.002;5.468;2023-06-14T02:08:24;40.59;37.81;45.98;;
73342;Laerm;61578;52.002;5.468;2023-06-14T02:08:54;40.78;37.88;46.09;;
73342;Laerm;61578;52.002;5.468;2023-06-14T02:09:25;40.78;37.77;45.33;;
73342;Laerm;61578;52.002;5.468;2023-06-14T02:09:56;40.56;37.68;45.22;;
73342;Laerm;61578;52.002;5.468;2023-06-14T02:10:26;40.73;37.63;44.53;;
73342;Laerm;61578;52.002;5.468;2023-06-14T02:10:57;40.69;37.60;45.32;;
73342;Laerm;61578;52.002;5.468;2023-06-14T02:11:28;40.54;37.74;44.41;;
73342;Laerm;61578;52.002;5.468;2023-06-14T02:11:58;40.87;37.51;45.08;;
73342;Laerm;61578;52.002;5.468;2023-06-14T02:12:29;40.87;37.33;44.99;;
73342;Laerm;61578;52.002;5.468;2023-06-14T02:13:00;40.77;37.84;44.68;;
73342;Laerm;61578;52.002;5.468;2023-06-14T02:13:31;40.73;37.17;45.87;;
73342;Laerm;61578;52.002;5.468;2023-06-14T02:14:01;40.54;37.56;44.62;;
73342;Laerm;61578;52.002;5.468;2023-06-14T02:14:32;40.71;37.38;45.08;;
73342;Laerm;61578;52.002;5.468;2023-06-14T02:15:04;40.42;37.15;44.39;;
73342;Laerm;61578;52.002;5.468;2023-06-14T02:15:36;40.67;36.95;44.83;;
73342;Laerm;61578;52.002;5.468;2023-06-14T02:16:07;40.68;37.48;44.69;;
73342;Laerm;61578;52.002;5.468;2023-06-14T02:16:37;40.71;37.85;44.67;;
73342;Laerm;61578;52.002;5.468;2023-06-14T02:17:09;40.67;36.35;44.59;;
73342;Laerm;61578;52.002;5.468;2023-06-14T02:17:40;41.34;37.35;49.49;;
73342;Laerm;61578;52.002;5.468;2023-06-14T02:18:11;42.22;37.22;52.38;;
73342;Laerm;61578;52.002;5.468;2023-06-14T02:18:42;42.67;37.74;52.29;;
73342;Laerm;61578;52.002;5.468;2023-06-14T02:19:13;43.29;37.98;55.31;;
73342;Laerm;61578;52.002;5.468;2023-06-14T02:19:49;43.40;37.67;54.00;;
73342;Laerm;61578;52.002;5.468;2023-06-14T02:20:20;43.87;37.69;53.83;;
73342;Laerm;61578;52.002;5.468;2023-06-14T02:20:51;44.19;38.01;54.87;;
73342;Laerm;61578;52.002;5.468;2023-06-14T02:21:22;43.84;37.71;54.66;;
73342;Laerm;61578;52.002;5.468;2023-06-14T02:21:53;43.58;37.59;57.82;;
73342;Laerm;61578;52.002;5.468;2023-06-14T02:22:24;43.72;37.33;56.47;;
73342;Laerm;61578;52.002;5.468;2023-06-14T02:22:55;44.08;37.53;57.17;;
73342;Laerm;61578;52.002;5.468;2023-06-14T02:23:25;42.06;37.88;52.79;;
73342;Laerm;61578;52.002;5.468;2023-06-14T02:23:56;43.76;37.94;55.39;;
73342;Laerm;61578;52.002;5.468;2023-06-14T02:24:28;43.99;37.99;56.37;;
73342;Laerm;61578;52.002;5.468;2023-06-14T02:24:59;44.34;37.84;56.58;;
73342;Laerm;61578;52.002;5.468;2023-06-14T02:25:30;44.79;38.28;54.78;;
73342;Laerm;61578;52.002;5.468;2023-06-14T02:26:01;43.13;36.70;55.94;;
73342;Laerm;61578;52.002;5.468;2023-06-14T02:26:33;43.23;37.60;56.00;;
73342;Laerm;61578;52.002;5.468;2023-06-14T02:27:04;43.75;38.21;54.07;;
73342;Laerm;61578;52.002;5.468;2023-06-14T02:27:35;41.23;37.00;45.54;;
73342;Laerm;61578;52.002;5.468;2023-06-14T02:28:06;40.96;37.94;45.97;;
73342;Laerm;61578;52.002;5.468;2023-06-14T02:28:36;41.25;37.70;46.09;;
73342;Laerm;61578;52.002;5.468;2023-06-14T02:29:07;41.30;37.37;45.38;;
73342;Laerm;61578;52.002;5.468;2023-06-14T02:29:41;41.38;37.97;46.78;;
73342;Laerm;61578;52.002;5.468;2023-06-14T02:30:12;41.54;38.07;47.39;;
73342;Laerm;61578;52.002;5.468;2023-06-14T02:30:43;41.18;37.85;45.67;;
73342;Laerm;61578;52.002;5.468;2023-06-14T02:31:14;41.23;37.51;45.19;;
73342;Laerm;61578;52.002;5.468;2023-06-14T02:31:46;41.34;37.57;46.70;;
73342;Laerm;61578;52.002;5.468;2023-06-14T02:32:18;41.70;37.20;47.96;;
73342;Laerm;61578;52.002;5.468;2023-06-14T02:32:49;41.55;37.75;46.35;;
73342;Laerm;61578;52.002;5.468;2023-06-14T02:33:21;42.02;37.72;48.26;;
73342;Laerm;61578;52.002;5.468;2023-06-14T02:33:52;42.45;37.65;55.23;;
73342;Laerm;61578;52.002;5.468;2023-06-14T02:34:23;41.74;37.79;47.33;;
73342;Laerm;61578;52.002;5.468;2023-06-14T02:34:54;41.60;37.90;46.30;;
73342;Laerm;61578;52.002;5.468;2023-06-14T02:35:25;41.45;38.16;45.68;;
73342;Laerm;61578;52.002;5.468;2023-06-14T02:35:58;41.56;37.81;47.05;;
73342;Laerm;61578;52.002;5.468;2023-06-14T02:36:29;41.34;38.00;44.94;;
73342;Laerm;61578;52.002;5.468;2023-06-14T02:37:01;41.26;38.26;47.49;;
73342;Laerm;61578;52.002;5.468;2023-06-14T02:37:33;51.66;37.90;64.86;;
73342;Laerm;61578;52.002;5.468;2023-06-14T02:38:04;52.29;37.18;69.87;;
73342;Laerm;61578;52.002;5.468;2023-06-14T02:38:35;52.16;37.89;68.06;;
73342;Laerm;61578;52.002;5.468;2023-06-14T02:39:05;44.36;37.66;59.14;;
73342;Laerm;61578;52.002;5.468;2023-06-14T02:39:36;45.67;37.69;61.87;;
73342;Laerm;61578;52.002;5.468;2023-06-14T02:40:07;42.22;36.50;51.56;;
73342;Laerm;61578;52.002;5.468;2023-06-14T02:40:39;41.76;37.94;47.86;;
73342;Laerm;61578;52.002;5.468;2023-06-14T02:41:12;41.80;37.59;47.23;;
73342;Laerm;61578;52.002;5.468;2023-06-14T02:41:43;42.08;38.18;48.77;;
73342;Laerm;61578;52.002;5.468;2023-06-14T02:42:14;41.98;37.99;48.91;;
73342;Laerm;61578;52.002;5.468;2023-06-14T02:42:45;41.44;37.95;47.20;;
73342;Laerm;61578;52.002;5.468;2023-06-14T02:43:15;41.41;37.84;46.90;;
73342;Laerm;61578;52.002;5.468;2023-06-14T02:43:48;41.36;37.56;46.40;;
73342;Laerm;61578;52.002;5.468;2023-06-14T02:44:18;51.35;37.75;66.42;;
73342;Laerm;61578;52.002;5.468;2023-06-14T02:44:49;53.74;37.91;68.79;;
73342;Laerm;61578;52.002;5.468;2023-06-14T02:45:21;52.83;37.99;67.05;;
73342;Laerm;61578;52.002;5.468;2023-06-14T02:45:53;52.81;38.20;67.59;;
73342;Laerm;61578;52.002;5.468;2023-06-14T02:46:23;53.10;37.53;69.28;;
73342;Laerm;61578;52.002;5.468;2023-06-14T02:46:54;52.92;37.72;66.08;;
73342;Laerm;61578;52.002;5.468;2023-06-14T02:47:26;53.21;37.94;67.09;;
73342;Laerm;61578;52.002;5.468;2023-06-14T02:47:56;53.77;38.03;68.54;;
73342;Laerm;61578;52.002;5.468;2023-06-14T02:48:27;52.74;37.95;66.55;;
73342;Laerm;61578;52.002;5.468;2023-06-14T02:48:59;52.43;38.00;65.83;;
73342;Laerm;61578;52.002;5.468;2023-06-14T02:49:30;49.87;37.57;65.88;;
73342;Laerm;61578;52.002;5.468;2023-06-14T02:50:01;52.87;37.68;67.67;;
73342;Laerm;61578;52.002;5.468;2023-06-14T02:50:31;47.93;37.34;65.88;;
73342;Laerm;61578;52.002;5.468;2023-06-14T02:51:02;42.00;37.72;50.44;;
73342;Laerm;61578;52.002;5.468;2023-06-14T02:51:33;41.84;37.29;49.82;;
73342;Laerm;61578;52.002;5.468;2023-06-14T02:52:04;40.75;37.38;46.56;;
73342;Laerm;61578;52.002;5.468;2023-06-14T02:52:35;40.61;37.70;50.56;;
73342;Laerm;61578;52.002;5.468;2023-06-14T02:53:06;43.28;37.39;52.74;;
73342;Laerm;61578;52.002;5.468;2023-06-14T02:53:37;43.96;37.69;55.08;;
73342;Laerm;61578;52.002;5.468;2023-06-14T02:54:07;43.81;37.92;56.07;;
73342;Laerm;61578;52.002;5.468;2023-06-14T02:54:38;43.74;37.64;54.46;;
73342;Laerm;61578;52.002;5.468;2023-06-14T02:55:09;43.92;37.82;53.46;;
73342;Laerm;61578;52.002;5.468;2023-06-14T02:55:40;43.76;37.17;52.76;;
73342;Laerm;61578;52.002;5.468;2023-06-14T02:56:10;41.95;36.88;51.81;;
73342;Laerm;61578;52.002;5.468;2023-06-14T02:56:42;41.76;37.82;49.50;;
73342;Laerm;61578;52.002;5.468;2023-06-14T02:57:12;41.07;37.16;47.67;;
73342;Laerm;61578;52.002;5.468;2023-06-14T02:57:43;40.98;37.52;48.78;;
73342;Laerm;61578;52.002;5.468;2023-06-14T02:58:14;41.16;37.18;48.93;;
73342;Laerm;61578;52.002;5.468;2023-06-14T02:58:46;41.42;37.05;48.94;;
73342;Laerm;61578;52.002;5.468;2023-06-14T02:59:19;40.99;37.52;48.08;;
73342;Laerm;61578;52.002;5.468;2023-06-14T02:59:51;40.73;37.34;46.00;;
73342;Laerm;61578;52.002;5.468;2023-06-14T03:00:22;40.74;37.35;45.49;;
73342;Laerm;61578;52.002;5.468;2023-06-14T03:00:53;40.81;37.62;46.07;;
73342;Laerm;61578;52.002;5.468;2023-06-14T03:01:26;47.47;37.36;61.66;;
73342;Laerm;61578;52.002;5.468;2023-06-14T03:02:05;46.73;37.62;60.88;;
73342;Laerm;61578;52.002;5.468;2023-06-14T03:02:36;40.32;37.36;44.25;;
73342;Laerm;61578;52.002;5.468;2023-06-14T03:03:07;41.04;37.41;53.49;;
73342;Laerm;61578;52.002;5.468;2023-06-14T03:03:44;41.26;36.88;57.55;;